createdAt,value
2022-12-13T00:01:53.250Z,21.67
2022-12-13T00:04:22.485Z,21.65
2022-12-13T00:06:50.122Z,23.58
2022-12-13T00:09:19.234Z,21.90
2022-12-13T00:11:49.653Z,23.25
2022-12-13T00:14:16.799Z,22.15
2022-12-13T00:16:49.034Z,19.40
2022-12-13T00:19:17.629Z,19.15
2022-12-13T00:21:45.188Z,21.65
2022-12-13T00:24:12.899Z,20.33
2022-12-13T00:26:40.325Z,26.05
2022-12-13T00:29:08.820Z,23.88
2022-12-13T00:31:58.654Z,22.95
2022-12-13T00:34:24.009Z,26.55
2022-12-13T00:36:51.504Z,24.15
2022-12-13T00:39:19.340Z,27.20
2022-12-13T00:41:47.094Z,22.20
2022-12-13T00:44:14.611Z,24.17
2022-12-13T00:46:42.088Z,27.13
2022-12-13T00:49:12.262Z,28.95
2022-12-13T00:51:40.172Z,27.13
2022-12-13T00:54:07.406Z,26.92
2022-12-13T00:56:35.051Z,23.27
2022-12-13T00:59:02.138Z,24.35
2022-12-13T01:01:32.259Z,21.95
2022-12-13T01:04:01.499Z,24.50
2022-12-13T01:06:43.153Z,22.60
2022-12-13T01:09:34.182Z,21.55
2022-12-13T01:12:07.035Z,25.85
2022-12-13T01:14:38.777Z,23.60
2022-12-13T01:17:06.659Z,20.38
2022-12-13T01:19:34.263Z,24.33
2022-12-13T01:22:08.237Z,24.70
2022-12-13T01:24:36.684Z,22.30
2022-12-13T01:27:04.174Z,24.52
2022-12-13T01:29:31.227Z,22.38
2022-12-13T01:31:58.324Z,26.27
2022-12-13T01:34:27.578Z,20.83
2022-12-13T01:36:58.384Z,27.80
2022-12-13T01:39:29.126Z,25.80
2022-12-13T01:42:00.082Z,20.52
2022-12-13T01:45:06.340Z,25.63
2022-12-13T01:47:38.673Z,21.25
2022-12-13T01:50:15.576Z,22.55
2022-12-13T01:52:44.305Z,22.60
2022-12-13T01:55:17.391Z,26.88
2022-12-13T01:57:49.223Z,26.13
2022-12-13T02:00:21.592Z,27.00
2022-12-13T02:02:49.514Z,26.33
2022-12-13T02:05:27.104Z,19.40
2022-12-13T02:07:55.079Z,22.05
2022-12-13T02:10:22.259Z,25.50
2022-12-13T02:12:52.513Z,25.17
2022-12-13T02:15:20.945Z,24.08
2022-12-13T02:18:09.439Z,22.85
2022-12-13T02:20:58.550Z,24.85
2022-12-13T02:23:47.460Z,26.38
2022-12-13T02:26:53.357Z,28.38
2022-12-13T02:30:01.854Z,27.05
2022-12-13T02:32:43.846Z,27.25
2022-12-13T02:35:45.670Z,24.27
2022-12-13T02:38:38.724Z,28.92
2022-12-13T02:41:36.288Z,26.58
2022-12-13T02:44:21.984Z,26.85
2022-12-13T02:47:02.025Z,23.75
2022-12-13T02:49:33.563Z,23.92
2022-12-13T02:52:01.525Z,31.58
2022-12-13T02:54:29.819Z,27.10
2022-12-13T02:57:00.805Z,22.20
2022-12-13T02:59:34.422Z,26.45
2022-12-13T03:02:13.649Z,27.45
2022-12-13T03:05:39.324Z,25.25
2022-12-13T03:08:34.264Z,24.42
2022-12-13T03:11:14.233Z,27.17
2022-12-13T03:14:00.271Z,25.27
2022-12-13T03:16:29.177Z,24.25
2022-12-13T03:19:03.397Z,24.30
2022-12-13T03:21:30.559Z,24.30
2022-12-13T03:24:00.602Z,24.30
2022-12-13T03:26:28.096Z,30.27
2022-12-13T03:28:55.484Z,25.60
2022-12-13T03:31:22.927Z,25.35
2022-12-13T03:33:50.048Z,28.48
2022-12-13T03:36:19.082Z,23.48
2022-12-13T03:38:48.934Z,30.25
2022-12-13T03:41:20.378Z,24.33
2022-12-13T03:43:49.842Z,25.25
2022-12-13T03:46:17.106Z,26.55
2022-12-13T03:48:44.225Z,29.58
2022-12-13T03:51:11.399Z,27.10
2022-12-13T03:53:38.493Z,27.60
2022-12-13T03:56:06.823Z,25.90
2022-12-13T03:58:37.630Z,24.45
2022-12-13T04:01:07.806Z,27.20
2022-12-13T04:03:35.616Z,21.17
2022-12-13T04:06:03.252Z,25.38
2022-12-13T04:08:30.398Z,24.08
2022-12-13T04:10:57.578Z,26.75
2022-12-13T04:13:35.361Z,21.83
2022-12-13T04:16:04.661Z,23.83
2022-12-13T04:18:31.853Z,23.05
2022-12-13T04:21:02.350Z,24.90
2022-12-13T04:23:29.471Z,23.40
2022-12-13T04:25:56.994Z,22.13
2022-12-13T04:28:26.550Z,28.27
2022-12-13T04:30:54.256Z,28.73
2022-12-13T04:33:24.784Z,29.75
2022-12-13T04:35:52.034Z,31.13
2022-12-13T04:38:19.515Z,26.77
2022-12-13T04:40:46.818Z,23.25
2022-12-13T04:43:14.045Z,23.65
2022-12-13T04:45:41.380Z,23.35
2022-12-13T04:48:08.678Z,24.25
2022-12-13T04:50:36.117Z,25.52
2022-12-13T04:53:03.659Z,23.02
2022-12-13T04:55:33.500Z,27.10
2022-12-13T04:58:00.575Z,23.42
2022-12-13T05:00:27.726Z,27.33
2022-12-13T05:02:54.885Z,25.23
2022-12-13T05:05:22.523Z,26.65
2022-12-13T05:07:49.701Z,25.77
2022-12-13T05:10:34.058Z,32.15
2022-12-13T05:13:04.277Z,30.63
2022-12-13T05:15:31.446Z,25.77
2022-12-13T05:18:10.553Z,25.77
2022-12-13T05:20:39.667Z,29.55
2022-12-13T05:23:07.240Z,23.95
2022-12-13T05:25:36.948Z,25.40
2022-12-13T05:28:26.851Z,23.27
2022-12-13T05:30:53.022Z,25.00
2022-12-13T05:33:22.152Z,21.25
2022-12-13T05:35:49.431Z,26.88
2022-12-13T05:38:16.557Z,26.10
2022-12-13T05:40:43.704Z,29.48
2022-12-13T05:43:21.876Z,24.67
2022-12-13T05:45:52.420Z,23.88
2022-12-13T05:48:24.155Z,22.23
2022-12-13T05:50:51.979Z,24.77
2022-12-13T05:53:37.423Z,22.20
2022-12-13T05:56:04.697Z,23.63
2022-12-13T05:58:35.928Z,23.10
2022-12-13T06:01:11.424Z,25.73
2022-12-13T06:03:39.570Z,23.83
2022-12-13T06:06:08.627Z,23.70
2022-12-13T06:08:36.217Z,22.77
2022-12-13T06:11:10.648Z,22.17
2022-12-13T06:13:43.959Z,22.85
2022-12-13T06:18:59.002Z,25.92
2022-12-13T06:21:31.192Z,20.05
2022-12-13T06:24:11.264Z,24.33
2022-12-13T06:26:38.390Z,24.30
2022-12-13T06:29:05.515Z,21.98
2022-12-13T06:31:35.332Z,24.65
2022-12-13T06:34:14.642Z,18.35
2022-12-13T06:36:42.582Z,21.20
2022-12-13T06:39:13.331Z,19.00
2022-12-13T06:41:43.337Z,22.30
2022-12-13T06:44:13.765Z,26.20
2022-12-13T06:46:41.120Z,21.77
2022-12-13T06:49:08.520Z,23.98
2022-12-13T06:51:36.031Z,24.83
2022-12-13T06:54:03.434Z,26.02
2022-12-13T06:56:30.993Z,21.80
2022-12-13T06:59:01.948Z,20.42
2022-12-13T07:01:37.577Z,20.65
2022-12-13T07:04:29.539Z,21.17
2022-12-13T07:06:56.171Z,24.00
2022-12-13T07:09:33.204Z,22.05
2022-12-13T07:12:06.725Z,18.48
2022-12-13T07:14:40.629Z,18.17
2022-12-13T07:17:08.549Z,26.60
2022-12-13T07:19:36.066Z,24.48
2022-12-13T07:22:05.949Z,19.55
2022-12-13T07:24:34.704Z,20.48
2022-12-13T07:27:03.032Z,21.13
2022-12-13T07:29:33.060Z,23.92
2022-12-13T07:32:02.318Z,22.48
2022-12-13T07:34:31.755Z,22.90
2022-12-13T07:36:59.022Z,23.23
2022-12-13T07:39:26.459Z,20.42
2022-12-13T07:41:58.077Z,23.85
2022-12-13T07:44:25.430Z,22.20
2022-12-13T07:46:52.958Z,22.05
2022-12-13T07:49:20.390Z,19.02
2022-12-13T07:51:47.850Z,19.95
2022-12-13T07:54:15.155Z,23.08
2022-12-13T07:56:42.284Z,22.20
2022-12-13T07:59:10.831Z,20.08
2022-12-13T08:01:38.053Z,23.17
2022-12-13T08:04:05.560Z,20.70
2022-12-13T08:06:40.332Z,21.90
2022-12-13T08:09:07.713Z,22.70
2022-12-13T08:11:34.897Z,22.58
2022-12-13T08:14:02.121Z,22.55
2022-12-13T08:16:30.194Z,23.83
2022-12-13T08:19:02.078Z,18.08
2022-12-13T08:22:01.723Z,19.33
2022-12-13T08:24:30.609Z,25.83
2022-12-13T08:27:02.567Z,19.27
2022-12-13T08:29:34.277Z,22.67
2022-12-13T08:32:14.319Z,21.00
2022-12-13T08:34:41.809Z,20.38
2022-12-13T08:37:08.989Z,23.27
2022-12-13T08:39:37.987Z,32.70
2022-12-13T08:42:16.760Z,24.10
2022-12-13T08:44:50.371Z,37.65
2022-12-13T08:47:22.925Z,40.58
2022-12-13T08:50:02.285Z,34.10
2022-12-13T08:52:40.616Z,23.45
2022-12-13T08:55:14.837Z,20.23
2022-12-13T08:57:44.046Z,19.60
2022-12-13T09:00:19.984Z,19.98
2022-12-13T09:02:49.568Z,19.90
2022-12-13T09:05:32.445Z,17.88
2022-12-13T09:08:04.368Z,20.85
2022-12-13T09:11:01.170Z,20.73
2022-12-13T09:13:43.269Z,20.73
2022-12-13T09:16:24.671Z,19.08
2022-12-13T09:18:55.424Z,18.75
2022-12-13T09:21:31.603Z,21.05
2022-12-13T09:24:01.778Z,21.17
2022-12-13T09:26:29.916Z,71.55
2022-12-13T09:29:11.230Z,25.00
2022-12-13T09:31:40.960Z,25.50
2022-12-13T09:34:10.401Z,17.80
2022-12-13T09:36:38.281Z,18.23
2022-12-13T09:39:06.146Z,17.05
2022-12-13T09:41:40.608Z,17.73
2022-12-13T09:44:30.891Z,15.45
2022-12-13T09:47:13.730Z,19.92
2022-12-13T09:49:52.502Z,15.18
2022-12-13T09:52:23.910Z,17.33
2022-12-13T09:54:56.883Z,17.63
2022-12-13T09:57:34.178Z,15.82
2022-12-13T10:00:08.318Z,16.58
2022-12-13T10:02:54.387Z,16.13
2022-12-13T10:05:34.568Z,18.77
2022-12-13T10:08:20.268Z,15.73
2022-12-13T10:10:51.067Z,17.15
2022-12-13T10:13:48.553Z,15.50
2022-12-13T10:16:23.478Z,15.00
2022-12-13T10:18:54.177Z,15.32
2022-12-13T10:21:29.430Z,15.35
2022-12-13T10:24:27.320Z,13.50
2022-12-13T10:26:58.899Z,18.83
2022-12-13T10:29:28.994Z,14.00
2022-12-13T10:31:57.564Z,15.27
2022-12-13T10:34:33.379Z,14.38
2022-12-13T10:37:33.452Z,16.60
2022-12-13T10:40:00.950Z,12.63
2022-12-13T10:42:34.058Z,13.63
2022-12-13T10:45:16.086Z,15.32
2022-12-13T10:48:02.252Z,14.18
2022-12-13T10:50:32.352Z,14.40
2022-12-13T10:53:00.604Z,13.38
2022-12-13T10:55:36.135Z,15.40
2022-12-13T10:58:09.898Z,10.32
2022-12-13T11:00:46.375Z,13.23
2022-12-13T11:03:32.743Z,13.93
2022-12-13T11:06:07.389Z,11.30
2022-12-13T11:08:34.909Z,11.40
2022-12-13T11:11:08.143Z,12.68
2022-12-13T11:13:52.081Z,16.42
2022-12-13T11:16:27.937Z,12.80
2022-12-13T11:18:58.329Z,11.50
2022-12-13T11:21:28.714Z,12.50
2022-12-13T11:24:01.758Z,14.82
2022-12-13T11:26:34.158Z,14.63
2022-12-13T11:29:09.307Z,14.02
2022-12-13T11:32:22.492Z,12.85
2022-12-13T11:35:25.574Z,11.65
2022-12-13T11:38:01.796Z,12.77
2022-12-13T11:40:38.132Z,14.00
2022-12-13T11:43:32.279Z,10.45
2022-12-13T11:46:05.957Z,15.65
2022-12-13T11:48:55.154Z,13.52
2022-12-13T11:51:28.520Z,10.25
2022-12-13T11:54:01.292Z,11.45
2022-12-13T11:56:38.982Z,10.93
2022-12-13T11:59:28.452Z,13.93
2022-12-13T12:02:18.994Z,13.15
2022-12-13T12:05:00.572Z,11.10
2022-12-13T12:12:46.574Z,13.55
2022-12-13T12:15:31.328Z,12.90
2022-12-13T12:17:59.005Z,12.75
2022-12-13T12:21:00.363Z,13.95
2022-12-13T12:23:43.643Z,12.68
2022-12-13T12:26:18.860Z,12.00
2022-12-13T12:29:12.262Z,13.30
2022-12-13T12:31:50.621Z,12.20
2022-12-13T12:35:06.813Z,13.00
2022-12-13T12:37:55.588Z,12.85
2022-12-13T12:40:52.182Z,13.25
2022-12-13T12:43:39.012Z,11.00
2022-12-13T12:47:01.593Z,13.75
2022-12-13T12:50:03.635Z,13.88
2022-12-13T12:52:55.184Z,15.35
2022-12-13T12:55:35.535Z,31.10
2022-12-13T12:58:18.983Z,18.85
2022-12-13T13:01:01.929Z,18.13
2022-12-13T13:03:34.816Z,18.63
2022-12-13T13:06:23.931Z,11.07
2022-12-13T13:09:01.037Z,13.15
2022-12-13T13:11:42.776Z,15.30
2022-12-13T13:14:31.523Z,13.35
2022-12-13T13:17:00.892Z,13.75
2022-12-13T13:19:31.122Z,14.65
2022-12-13T13:22:02.600Z,14.15
2022-12-13T13:24:32.946Z,17.30
2022-12-13T13:27:30.399Z,14.43
2022-12-13T13:30:28.649Z,16.65
2022-12-13T13:33:00.775Z,14.23
2022-12-13T13:35:36.826Z,13.93
2022-12-13T13:38:24.801Z,14.68
2022-12-13T13:40:53.828Z,18.20
2022-12-13T13:43:32.917Z,12.07
2022-12-13T13:46:11.314Z,13.75
2022-12-13T13:49:12.008Z,13.85
2022-12-13T13:52:23.713Z,14.32
2022-12-13T13:54:52.961Z,16.45
2022-12-13T13:57:33.227Z,18.55
2022-12-13T14:00:16.684Z,16.42
2022-12-13T14:02:48.220Z,15.45
2022-12-13T14:05:55.210Z,17.13
2022-12-13T14:08:45.790Z,18.25
2022-12-13T14:11:52.416Z,17.52
2022-12-13T14:14:25.784Z,15.63
2022-12-13T14:17:24.827Z,18.05
2022-12-13T14:20:10.182Z,19.58
2022-12-13T14:22:50.877Z,19.85
2022-12-13T14:25:42.244Z,15.77
2022-12-13T14:28:50.244Z,19.27
2022-12-13T14:31:33.994Z,18.45
2022-12-13T14:34:03.234Z,18.65
2022-12-13T14:36:35.835Z,18.80
2022-12-13T14:39:16.250Z,18.63
2022-12-13T14:41:58.819Z,18.75
2022-12-13T14:44:36.351Z,20.65
2022-12-13T14:47:06.927Z,20.75
2022-12-13T14:49:39.121Z,19.63
2022-12-13T14:52:09.709Z,19.98
2022-12-13T14:54:47.483Z,20.50
2022-12-13T14:57:20.691Z,23.58
2022-12-13T14:59:54.677Z,19.73
2022-12-13T15:02:31.184Z,21.00
2022-12-13T15:05:05.059Z,17.10
2022-12-13T15:07:41.779Z,19.95
2022-12-13T15:10:15.743Z,17.45
2022-12-13T15:12:44.772Z,15.43
2022-12-13T15:15:29.188Z,24.13
2022-12-13T15:18:08.352Z,14.70
2022-12-13T15:20:46.484Z,14.93
2022-12-13T15:23:34.254Z,20.52
2022-12-13T15:26:29.017Z,18.92
2022-12-13T15:29:10.375Z,21.05
2022-12-13T15:31:40.707Z,18.05
2022-12-13T15:34:32.154Z,15.57
2022-12-13T15:37:05.735Z,14.95
2022-12-13T15:39:38.719Z,18.15
2022-12-13T15:42:13.461Z,15.68
2022-12-13T15:44:54.465Z,14.88
2022-12-13T15:47:28.708Z,18.55
2022-12-13T15:50:02.686Z,16.52
2022-12-13T15:52:40.423Z,20.10
2022-12-13T15:55:07.926Z,15.60
2022-12-13T15:57:57.256Z,16.67
2022-12-13T16:00:31.205Z,13.38
2022-12-13T16:03:15.169Z,16.52
2022-12-13T16:05:52.604Z,14.88
2022-12-13T16:08:31.892Z,18.45
2022-12-13T16:11:00.007Z,16.60
2022-12-13T16:13:30.374Z,14.02
2022-12-13T16:16:08.851Z,14.95
2022-12-13T16:18:46.282Z,14.57
2022-12-13T16:21:16.959Z,15.73
2022-12-13T16:23:48.066Z,19.13
2022-12-13T16:28:49.349Z,16.00
2022-12-13T16:31:18.577Z,17.95
2022-12-13T16:33:45.971Z,18.55
2022-12-13T16:36:13.185Z,19.13
2022-12-13T16:38:40.506Z,20.60
2022-12-13T16:41:09.646Z,20.30
2022-12-13T16:43:54.803Z,19.02
2022-12-13T16:47:12.341Z,18.20
2022-12-13T16:49:27.110Z,14.43
2022-12-13T16:51:55.523Z,17.80
2022-12-13T16:54:25.215Z,18.95
2022-12-13T16:56:54.231Z,25.27
2022-12-13T16:59:25.008Z,21.33
2022-12-13T17:01:55.404Z,17.65
2022-12-13T17:04:24.526Z,27.67
2022-12-13T17:06:55.196Z,23.25
2022-12-13T17:09:24.254Z,23.38
2022-12-13T17:11:51.615Z,21.30
2022-12-13T17:14:22.147Z,22.55
2022-12-13T17:16:50.951Z,17.08
2022-12-13T17:19:18.797Z,17.35
2022-12-13T17:21:46.158Z,20.60
2022-12-13T17:24:13.489Z,25.38
2022-12-13T17:26:41.304Z,19.75
2022-12-13T17:29:25.468Z,22.73
2022-12-13T17:31:53.504Z,18.63
2022-12-13T17:34:20.667Z,19.70
2022-12-13T17:36:47.836Z,21.63
2022-12-13T17:39:15.001Z,21.33
2022-12-13T17:41:42.197Z,24.48
2022-12-13T17:44:11.197Z,26.48
2022-12-13T17:46:38.823Z,23.90
2022-12-13T17:49:06.101Z,28.42
2022-12-13T17:51:35.509Z,26.08
2022-12-13T17:54:02.617Z,24.42
2022-12-13T17:56:29.799Z,24.25
2022-12-13T17:58:57.193Z,27.95
2022-12-13T18:01:28.015Z,26.40
2022-12-13T18:03:56.752Z,33.00
2022-12-13T18:06:27.257Z,28.63
2022-12-13T18:08:54.625Z,29.30
2022-12-13T18:11:37.635Z,27.92
2022-12-13T18:14:06.578Z,22.13
2022-12-13T18:16:37.405Z,24.88
2022-12-13T18:21:35.631Z,22.40
2022-12-13T18:24:03.821Z,28.30
2022-12-13T18:26:31.001Z,27.30
2022-12-13T18:28:58.472Z,21.58
2022-12-13T18:31:25.957Z,26.38
2022-12-13T18:33:54.635Z,25.75
2022-12-13T18:36:23.784Z,25.77
2022-12-13T18:38:52.314Z,19.63
2022-12-13T18:41:22.175Z,21.85
2022-12-13T18:43:59.225Z,25.83
2022-12-13T18:46:28.805Z,34.88
2022-12-13T18:48:56.973Z,34.05
2022-12-13T18:51:24.418Z,31.17
2022-12-13T18:53:52.049Z,35.22
2022-12-13T18:56:19.661Z,30.75
2022-12-13T18:58:50.873Z,26.52
2022-12-13T19:01:18.947Z,21.67
2022-12-13T19:03:49.574Z,25.27
2022-12-13T19:06:25.539Z,27.20
2022-12-13T19:08:55.749Z,27.25
2022-12-13T19:11:26.902Z,29.35
2022-12-13T19:13:54.765Z,30.03
2022-12-13T19:16:23.335Z,33.13
2022-12-13T19:18:51.234Z,30.60
2022-12-13T19:21:20.747Z,29.52
2022-12-13T19:23:54.959Z,30.65
2022-12-13T19:26:24.988Z,31.33
2022-12-13T19:28:52.187Z,22.65
2022-12-13T19:31:19.525Z,24.80
2022-12-13T19:33:46.863Z,25.85
2022-12-13T19:36:19.909Z,28.55
2022-12-13T19:38:49.993Z,22.05
2022-12-13T19:41:18.626Z,25.73
2022-12-13T19:43:52.628Z,24.55
2022-12-13T19:46:21.109Z,23.67
2022-12-13T19:48:48.465Z,24.90
2022-12-13T19:51:15.732Z,24.40
2022-12-13T19:53:42.906Z,23.17
2022-12-13T19:56:11.954Z,23.92
2022-12-13T19:58:39.914Z,33.85
2022-12-13T20:01:08.563Z,29.80
2022-12-13T20:03:39.072Z,92.43
2022-12-13T20:06:08.387Z,48.22
2022-12-13T20:08:35.946Z,53.72
2022-12-13T20:11:05.760Z,74.60
2022-12-13T20:13:34.376Z,126.05
2022-12-13T20:16:02.373Z,59.20
2022-12-13T20:18:29.751Z,37.25
2022-12-13T20:21:13.210Z,36.17
2022-12-13T20:23:48.785Z,36.92
2022-12-13T20:26:19.751Z,50.50
2022-12-13T20:28:47.367Z,49.15
2022-12-13T20:31:18.335Z,48.75
2022-12-13T20:33:45.549Z,65.00
2022-12-13T20:36:26.169Z,49.60
2022-12-13T20:38:59.039Z,80.90
2022-12-13T20:41:28.285Z,48.63
2022-12-13T20:43:57.416Z,39.33
2022-12-13T20:46:25.844Z,85.43
2022-12-13T20:48:55.284Z,58.75
2022-12-13T20:51:27.288Z,45.63
2022-12-13T20:53:55.916Z,34.58
2022-12-13T20:56:25.634Z,37.03
2022-12-13T20:58:52.966Z,46.47
2022-12-13T21:01:25.560Z,34.20
2022-12-13T21:03:58.466Z,31.85
2022-12-13T21:06:26.816Z,26.38
2022-12-13T21:08:55.346Z,24.10
2022-12-13T21:11:35.320Z,27.85
2022-12-13T21:14:09.175Z,29.95
2022-12-13T21:16:44.362Z,24.50
2022-12-13T21:19:18.045Z,24.80
2022-12-13T21:21:45.437Z,23.33
2022-12-13T21:24:17.203Z,26.40
2022-12-13T21:26:45.454Z,21.58
2022-12-13T21:29:13.981Z,26.25
2022-12-13T21:31:44.126Z,24.70
2022-12-13T21:34:17.513Z,27.45
2022-12-13T21:36:46.721Z,27.23
2022-12-13T21:39:16.718Z,22.35
2022-12-13T21:41:45.437Z,23.77
2022-12-13T21:44:15.059Z,22.42
2022-12-13T21:49:30.421Z,25.63
2022-12-13T21:51:57.578Z,23.73
2022-12-13T21:54:25.125Z,24.90
2022-12-13T21:57:10.596Z,21.30
2022-12-13T21:59:37.703Z,20.30
2022-12-13T22:02:15.599Z,26.35
2022-12-13T22:04:49.152Z,26.27
2022-12-13T22:07:43.793Z,23.98
2022-12-13T22:10:15.275Z,21.63
2022-12-13T22:12:42.465Z,20.80
2022-12-13T22:15:12.399Z,21.33
2022-12-13T22:17:40.528Z,25.13
2022-12-13T22:20:12.025Z,25.08
2022-12-13T22:22:40.286Z,24.98
2022-12-13T22:25:08.485Z,23.80
2022-12-13T22:27:35.606Z,22.08
2022-12-13T22:30:02.897Z,25.08
2022-12-13T22:32:31.487Z,28.80
2022-12-13T22:34:59.151Z,24.73
2022-12-13T22:37:26.846Z,26.40
2022-12-13T22:39:54.414Z,24.83
2022-12-13T22:42:21.749Z,24.05
2022-12-13T22:44:49.147Z,26.08
2022-12-13T22:47:16.412Z,25.42
2022-12-13T22:49:43.527Z,29.38
2022-12-13T22:52:10.661Z,28.10
2022-12-13T22:54:37.824Z,25.90
2022-12-13T22:57:07.007Z,25.92
2022-12-13T22:59:34.244Z,28.42
2022-12-13T23:02:03.001Z,24.90
2022-12-13T23:04:32.764Z,24.38
2022-12-13T23:07:01.190Z,27.67
2022-12-13T23:09:28.456Z,24.25
2022-12-13T23:12:14.317Z,24.92
2022-12-13T23:14:41.511Z,24.38
2022-12-13T23:17:08.685Z,24.05
2022-12-13T23:19:52.885Z,25.20
2022-12-13T23:22:22.491Z,25.13
2022-12-13T23:24:50.983Z,22.13
2022-12-13T23:27:22.503Z,21.83
2022-12-13T23:29:49.922Z,23.77
2022-12-13T23:32:17.561Z,22.70
2022-12-13T23:34:44.689Z,23.73
2022-12-13T23:37:11.924Z,21.42
2022-12-13T23:39:39.075Z,22.55
2022-12-13T23:42:06.215Z,26.13
2022-12-13T23:44:33.606Z,24.45
2022-12-13T23:47:00.741Z,25.27
2022-12-13T23:49:27.864Z,25.33
2022-12-13T23:51:54.922Z,25.92
2022-12-13T23:54:22.091Z,25.10
2022-12-13T23:56:49.520Z,18.92
2022-12-13T23:59:16.719Z,23.65
